Time;durP1;ratioP1;P1;durP2;ratioP2;P2;SDS_P1;SDS_P2;PMS_P1;PMS_P2;Temp;Humidity;BMP_temperature;BMP_pressure;BME280_temperature;BME280_humidity;BME280_pressure;Samples;Min_cycle;Max_cycle;Signal;HPM_P1;HPM_P2
2023/01/24 00:00:34;;;;;;;5.00;2.78;;;;;;;;;;5122365;27;20055;-76
2023/01/24 00:03:17;;;;;;;5.00;2.63;;;;;;;;;;5135973;27;20133;-78
2023/01/24 00:05:45;;;;;;;4.90;2.78;;;;;;;;;;5138043;27;20043;-77
2023/01/24 00:08:12;;;;;;;4.47;2.80;;;;;;;;;;5136377;27;20485;-81
2023/01/24 00:10:39;;;;;;;5.18;2.50;;;;;;;;;;5136942;27;20057;-77
2023/01/24 00:13:06;;;;;;;6.10;2.50;;;;;;;;;;5132590;27;20043;-80
2023/01/24 00:15:32;;;;;;;5.30;2.95;;;;;;;;;;5142082;27;20069;-78
2023/01/24 00:17:58;;;;;;;4.47;3.00;;;;;;;;;;5138549;27;20040;-78
2023/01/24 00:20:25;;;;;;;4.95;3.20;;;;;;;;;;5124231;27;20051;-78
2023/01/24 00:22:51;;;;;;;3.80;2.65;;;;;;;;;;5138563;27;20050;-78
2023/01/24 00:25:17;;;;;;;8.18;3.38;;;;;;;;;;5140982;27;20596;-77
2023/01/24 00:27:42;;;;;;;7.80;3.53;;;;;;;;;;5140186;27;20081;-76
2023/01/24 00:30:09;;;;;;;5.28;3.40;;;;;;;;;;5144296;27;20056;-77
2023/01/24 00:32:35;;;;;;;6.20;3.40;;;;;;;;;;5106584;27;20054;-80
2023/01/24 00:35:02;;;;;;;6.05;3.53;;;;;;;;;;5141714;27;20871;-76
2023/01/24 00:37:28;;;;;;;8.30;3.85;;;;;;;;;;5144876;27;20047;-77
2023/01/24 00:39:54;;;;;;;8.43;3.85;;;;;;;;;;5139891;27;20051;-80
2023/01/24 00:42:20;;;;;;;7.13;4.10;;;;;;;;;;5138331;27;20107;-77
2023/01/24 00:44:46;;;;;;;10.18;4.43;;;;;;;;;;5136147;27;20166;-81
2023/01/24 00:47:12;;;;;;;7.80;4.35;;;;;;;;;;5135688;27;20137;-78
2023/01/24 00:49:38;;;;;;;7.70;4.68;;;;;;;;;;5140489;27;20053;-78
2023/01/24 00:52:04;;;;;;;9.57;5.40;;;;;;;;;;5139695;27;20184;-77
2023/01/24 00:54:30;;;;;;;6.22;4.45;;;;;;;;;;5141176;27;20054;-77
2023/01/24 00:56:56;;;;;;;9.57;4.70;;;;;;;;;;5136343;27;20084;-76
2023/01/24 00:59:22;;;;;;;6.43;3.97;;;;;;;;;;5138085;27;20132;-79
2023/01/24 01:01:47;;;;;;;11.35;4.05;;;;;;;;;;5138464;27;20107;-80
2023/01/24 01:04:14;;;;;;;5.82;3.65;;;;;;;;;;5142586;27;20046;-77
2023/01/24 01:06:39;;;;;;;7.32;3.67;;;;;;;;;;5142399;27;20043;-80
2023/01/24 01:09:06;;;;;;;7.88;3.40;;;;;;;;;;5146102;27;20074;-76
2023/01/24 01:11:31;;;;;;;5.43;3.40;;;;;;;;;;5140117;27;20043;-82
2023/01/24 01:13:58;;;;;;;5.20;3.22;;;;;;;;;;5136352;27;20043;-78
2023/01/24 01:16:24;;;;;;;4.97;3.00;;;;;;;;;;5135907;27;20054;-78
2023/01/24 01:18:53;;;;;;;5.95;3.30;;;;;;;;;;5135694;27;20396;-79
2023/01/24 01:21:21;;;;;;;4.95;3.13;;;;;;;;;;5137277;27;20103;-76
2023/01/24 01:23:48;;;;;;;9.15;2.80;;;;;;;;;;5141771;27;20046;-78
2023/01/24 01:26:20;;;;;;;8.52;3.42;;;;;;;;;;5140178;27;20487;-80
2023/01/24 01:28:46;;;;;;;5.35;2.92;;;;;;;;;;5139714;27;20046;-78
2023/01/24 01:31:12;;;;;;;5.13;2.92;;;;;;;;;;5136417;27;20044;-75
2023/01/24 01:33:38;;;;;;;3.53;2.50;;;;;;;;;;5138533;27;20134;-80
2023/01/24 01:36:04;;;;;;;3.63;2.15;;;;;;;;;;5136795;27;20046;-78
2023/01/24 01:38:31;;;;;;;4.75;2.50;;;;;;;;;;5138671;27;20795;-76
2023/01/24 01:40:58;;;;;;;3.42;2.20;;;;;;;;;;5137981;27;20043;-76
2023/01/24 01:43:27;;;;;;;4.72;2.58;;;;;;;;;;5134557;27;20046;-75
2023/01/24 01:45:57;;;;;;;5.63;2.50;;;;;;;;;;5135697;27;20046;-79
2023/01/24 01:48:59;;;;;;;5.43;2.22;;;;;;;;;;5139457;27;20511;-77
2023/01/24 01:51:39;;;;;;;5.57;2.50;;;;;;;;;;5087756;27;20050;-77
2023/01/24 01:54:27;;;;;;;2.67;1.92;;;;;;;;;;5135132;27;20072;-75
2023/01/24 01:57:00;;;;;;;3.45;2.25;;;;;;;;;;5137783;27;20166;-77
2023/01/24 01:59:34;;;;;;;4.65;1.92;;;;;;;;;;5135328;27;20582;-78
2023/01/24 02:02:01;;;;;;;3.42;1.83;;;;;;;;;;5143365;27;20035;-79
2023/01/24 02:04:35;;;;;;;3.40;1.95;;;;;;;;;;5137599;27;20043;-78
2023/01/24 02:07:09;;;;;;;2.60;1.90;;;;;;;;;;5141313;27;20091;-77
2023/01/24 02:09:43;;;;;;;3.58;1.88;;;;;;;;;;5134841;27;20050;-75
2023/01/24 02:12:18;;;;;;;3.63;2.00;;;;;;;;;;5135355;27;21686;-77
2023/01/24 02:17:32;;;;;;;2.30;1.75;;;;;;;;;;5136381;27;20046;-78
2023/01/24 02:20:13;;;;;;;2.28;1.60;;;;;;;;;;5137192;27;20223;-76
2023/01/24 02:23:08;;;;;;;3.03;1.80;;;;;;;;;;5139198;27;20046;-76
2023/01/24 02:25:40;;;;;;;;;;;;;;;;;;5129178;27;20054;-77
2023/01/24 02:28:08;;;;;;;4.50;2.08;;;;;;;;;;5140239;27;20018;-76
2023/01/24 02:30:36;;;;;;;1.73;1.40;;;;;;;;;;5138201;27;20062;-76
2023/01/24 02:33:11;;;;;;;4.00;1.70;;;;;;;;;;5136058;27;20063;-79
2023/01/24 02:35:37;;;;;;;3.35;1.88;;;;;;;;;;5136404;27;20042;-79
2023/01/24 02:38:06;;;;;;;2.28;1.70;;;;;;;;;;5135584;27;20050;-77
2023/01/24 02:40:33;;;;;;;1.92;1.40;;;;;;;;;;5129608;27;20510;-76
2023/01/24 02:43:03;;;;;;;3.75;1.90;;;;;;;;;;5134072;27;20051;-78
2023/01/24 02:45:33;;;;;;;2.08;1.58;;;;;;;;;;5134071;27;20495;-76
2023/01/24 02:47:58;;;;;;;2.03;1.48;;;;;;;;;;5135662;27;20466;-76
2023/01/24 02:50:28;;;;;;;2.20;1.70;;;;;;;;;;5138278;27;20050;-76
2023/01/24 02:58:05;;;;;;;3.97;1.73;;;;;;;;;;5134617;27;20055;-78
2023/01/24 02:58:26;;;;;;;3.20;1.80;;;;;;;;;;5133981;27;20051;-76
2023/01/24 03:00:52;;;;;;;2.33;1.70;;;;;;;;;;5135207;27;20046;-75
2023/01/24 03:03:18;;;;;;;2.67;1.67;;;;;;;;;;5138544;27;20042;-78
2023/01/24 03:05:56;;;;;;;2.00;1.60;;;;;;;;;;5132995;27;20695;-78
2023/01/24 03:08:31;;;;;;;2.15;1.67;;;;;;;;;;5134919;27;20054;-77
2023/01/24 03:10:58;;;;;;;2.85;1.60;;;;;;;;;;5136496;27;20043;-76
2023/01/24 03:35:23;;;;;;;3.30;1.65;;;;;;;;;;5129687;27;22759;-79
2023/01/24 03:40:34;;;;;;;2.15;1.73;;;;;;;;;;5125352;27;20043;-79
2023/01/24 03:43:01;;;;;;;2.30;1.40;;;;;;;;;;5132637;27;20064;-75
2023/01/24 03:45:35;;;;;;;2.30;1.50;;;;;;;;;;5129955;27;20126;-76
2023/01/24 03:48:03;;;;;;;;;;;;;;;;;;5133535;27;20566;-75
2023/01/24 03:53:18;;;;;;;4.13;1.70;;;;;;;;;;5140609;27;20050;-76
2023/01/24 03:55:44;;;;;;;2.92;1.35;;;;;;;;;;5134249;27;20103;-76
2023/01/24 03:58:11;;;;;;;2.33;1.55;;;;;;;;;;5139245;27;20103;-75
2023/01/24 04:00:38;;;;;;;1.50;1.35;;;;;;;;;;5138441;27;20046;-76
2023/01/24 04:03:05;;;;;;;2.45;1.70;;;;;;;;;;5141993;27;20096;-78
2023/01/24 04:05:35;;;;;;;2.22;1.55;;;;;;;;;;5140191;27;20794;-75
2023/01/24 04:08:02;;;;;;;3.08;1.67;;;;;;;;;;5138399;27;20038;-76
2023/01/24 04:10:28;;;;;;;1.85;1.40;;;;;;;;;;5135497;27;20042;-79
2023/01/24 04:12:55;;;;;;;2.63;1.65;;;;;;;;;;5136643;27;20496;-75
2023/01/24 04:15:23;;;;;;;2.17;1.60;;;;;;;;;;5139830;27;20116;-76
2023/01/24 04:17:49;;;;;;;5.95;1.73;;;;;;;;;;5146087;27;20047;-76
2023/01/24 04:20:16;;;;;;;1.90;1.60;;;;;;;;;;5116289;27;20046;-77
2023/01/24 04:22:43;;;;;;;1.85;1.42;;;;;;;;;;5135898;27;20100;-79
2023/01/24 04:25:09;;;;;;;1.75;1.40;;;;;;;;;;5137204;27;20057;-79
2023/01/24 04:27:37;;;;;;;4.85;1.60;;;;;;;;;;5131044;27;20055;-77
2023/01/24 04:30:05;;;;;;;2.20;1.50;;;;;;;;;;5134063;27;20042;-81
2023/01/24 04:32:31;;;;;;;2.88;1.70;;;;;;;;;;5133033;27;20059;-78
2023/01/24 04:34:57;;;;;;;2.70;1.40;;;;;;;;;;5134435;27;20143;-76
2023/01/24 04:37:23;;;;;;;2.95;1.70;;;;;;;;;;5134048;27;20046;-77
2023/01/24 04:39:49;;;;;;;3.58;1.65;;;;;;;;;;5134468;27;20094;-75
2023/01/24 04:42:15;;;;;;;1.98;1.60;;;;;;;;;;5141272;27;20038;-76
2023/01/24 04:44:41;;;;;;;2.95;1.70;;;;;;;;;;5134186;27;20038;-79
2023/01/24 04:47:07;;;;;;;1.90;1.50;;;;;;;;;;5139509;27;20472;-78
2023/01/24 04:49:33;;;;;;;1.88;1.40;;;;;;;;;;5125647;27;20058;-77
2023/01/24 04:51:59;;;;;;;1.70;1.50;;;;;;;;;;5142760;27;20050;-78
2023/01/24 04:54:25;;;;;;;2.05;1.40;;;;;;;;;;5142101;27;20046;-78
2023/01/24 04:56:51;;;;;;;1.85;1.50;;;;;;;;;;5139434;27;20043;-77
2023/01/24 04:59:17;;;;;;;2.35;1.50;;;;;;;;;;5140085;27;20045;-78
2023/01/24 05:01:43;;;;;;;2.67;1.60;;;;;;;;;;5135936;27;20050;-77
2023/01/24 05:04:09;;;;;;;2.30;1.52;;;;;;;;;;5141132;27;20490;-75
2023/01/24 05:06:35;;;;;;;3.05;1.55;;;;;;;;;;5134232;27;20052;-77
2023/01/24 05:09:01;;;;;;;3.38;1.88;;;;;;;;;;5139372;27;20050;-77
2023/01/24 05:11:27;;;;;;;4.90;1.80;;;;;;;;;;5136272;27;20050;-77
2023/01/24 05:13:53;;;;;;;5.82;1.88;;;;;;;;;;5133521;27;20151;-78
2023/01/24 05:16:19;;;;;;;2.75;1.80;;;;;;;;;;5133127;27;20043;-75
2023/01/24 05:18:45;;;;;;;4.60;1.80;;;;;;;;;;5142622;27;20035;-76
2023/01/24 05:21:16;;;;;;;2.90;1.92;;;;;;;;;;5139336;27;20128;-79
2023/01/24 05:23:42;;;;;;;2.70;1.70;;;;;;;;;;5142001;27;20047;-79
2023/01/24 05:26:09;;;;;;;3.10;1.60;;;;;;;;;;5141518;27;20479;-76
2023/01/24 05:28:35;;;;;;;2.45;1.77;;;;;;;;;;5133736;27;20863;-79
2023/01/24 05:31:04;;;;;;;2.83;1.75;;;;;;;;;;5138852;27;20073;-78
2023/01/24 05:33:30;;;;;;;2.88;1.92;;;;;;;;;;5135970;27;20089;-77
2023/01/24 05:36:01;;;;;;;2.85;1.92;;;;;;;;;;5133813;27;20461;-79
2023/01/24 05:38:27;;;;;;;2.80;2.00;;;;;;;;;;5139302;27;20468;-75
2023/01/24 05:40:53;;;;;;;2.60;2.00;;;;;;;;;;5134919;27;20222;-79
2023/01/24 05:43:18;;;;;;;2.50;1.90;;;;;;;;;;5133829;27;20512;-79
2023/01/24 05:45:44;;;;;;;4.07;2.00;;;;;;;;;;5139064;27;20121;-77
2023/01/24 05:48:10;;;;;;;3.05;1.73;;;;;;;;;;5140869;27;20763;-76
2023/01/24 05:50:36;;;;;;;2.75;1.90;;;;;;;;;;5140103;27;20074;-78
2023/01/24 05:53:03;;;;;;;2.38;1.70;;;;;;;;;;5139457;27;20408;-79
2023/01/24 05:55:29;;;;;;;2.88;1.85;;;;;;;;;;5141498;27;20071;-79
2023/01/24 05:57:55;;;;;;;6.07;2.40;;;;;;;;;;5138572;27;20039;-79
2023/01/24 06:00:21;;;;;;;3.33;2.03;;;;;;;;;;5137447;27;20051;-82
2023/01/24 06:02:47;;;;;;;3.50;2.17;;;;;;;;;;5132045;27;20078;-78
2023/01/24 06:05:13;;;;;;;4.72;1.95;;;;;;;;;;5137400;27;20143;-78
2023/01/24 06:07:39;;;;;;;4.25;2.40;;;;;;;;;;5136055;27;20721;-78
2023/01/24 06:10:05;;;;;;;3.50;1.98;;;;;;;;;;5138714;27;20058;-79
2023/01/24 06:12:32;;;;;;;3.80;1.92;;;;;;;;;;5133229;27;20050;-80
2023/01/24 06:14:58;;;;;;;2.83;1.88;;;;;;;;;;5134806;27;20058;-78
2023/01/24 06:17:23;;;;;;;3.30;2.17;;;;;;;;;;5133756;27;20043;-80
2023/01/24 06:19:50;;;;;;;2.50;1.92;;;;;;;;;;5137353;27;20035;-80
2023/01/24 06:22:25;;;;;;;5.35;2.10;;;;;;;;;;5132044;27;20162;-81
2023/01/24 06:24:51;;;;;;;2.42;1.85;;;;;;;;;;5136404;27;20034;-78
2023/01/24 06:27:17;;;;;;;3.17;1.90;;;;;;;;;;5137518;27;20051;-77
2023/01/24 06:29:44;;;;;;;2.75;2.17;;;;;;;;;;5129933;27;20162;-84
2023/01/24 06:32:26;;;;;;;5.70;2.38;;;;;;;;;;5134136;27;20062;-76
2023/01/24 06:35:27;;;;;;;5.07;1.98;;;;;;;;;;5132696;27;20066;-80
2023/01/24 06:37:53;;;;;;;2.90;2.15;;;;;;;;;;5134741;27;20441;-79
2023/01/24 06:40:24;;;;;;;2.70;2.00;;;;;;;;;;5133368;27;20062;-81
2023/01/24 06:42:51;;;;;;;3.80;2.17;;;;;;;;;;5138113;27;20195;-78
2023/01/24 06:45:17;;;;;;;3.88;2.25;;;;;;;;;;5138196;27;20047;-80
2023/01/24 06:47:43;;;;;;;3.72;2.17;;;;;;;;;;5136386;27;20519;-76
2023/01/24 06:50:20;;;;;;;3.80;2.13;;;;;;;;;;5137871;27;20718;-77
2023/01/24 06:52:47;;;;;;;3.75;2.22;;;;;;;;;;5137674;27;20057;-77
2023/01/24 06:55:14;;;;;;;3.80;2.28;;;;;;;;;;5133855;27;20053;-76
2023/01/24 06:57:39;;;;;;;3.22;2.08;;;;;;;;;;5134225;27;20217;-80
2023/01/24 07:00:06;;;;;;;2.58;1.80;;;;;;;;;;5138579;27;20039;-76
2023/01/24 07:02:32;;;;;;;4.38;2.25;;;;;;;;;;5134176;27;20046;-75
2023/01/24 07:04:58;;;;;;;5.10;2.35;;;;;;;;;;5134901;27;20104;-78
2023/01/24 07:07:24;;;;;;;4.18;2.20;;;;;;;;;;5130053;27;20137;-76
2023/01/24 07:09:50;;;;;;;4.13;2.50;;;;;;;;;;5135800;27;20046;-79
2023/01/24 07:12:16;;;;;;;3.05;2.05;;;;;;;;;;5133662;27;20514;-79
2023/01/24 07:14:43;;;;;;;3.55;2.08;;;;;;;;;;5132110;27;20242;-78
2023/01/24 07:17:10;;;;;;;5.20;2.22;;;;;;;;;;5135590;27;20050;-80
2023/01/24 07:19:36;;;;;;;3.95;2.22;;;;;;;;;;5136698;27;20051;-78
2023/01/24 07:22:02;;;;;;;3.78;2.30;;;;;;;;;;5133464;27;20133;-79
2023/01/24 07:24:29;;;;;;;2.67;2.00;;;;;;;;;;5133361;27;20042;-79
2023/01/24 07:26:57;;;;;;;4.30;2.30;;;;;;;;;;5133017;27;20067;-76
2023/01/24 07:29:23;;;;;;;6.80;2.65;;;;;;;;;;5131394;27;20057;-78
2023/01/24 07:31:50;;;;;;;2.63;1.95;;;;;;;;;;5124175;27;20051;-79
2023/01/24 07:34:18;;;;;;;4.45;2.67;;;;;;;;;;5137017;27;20138;-78
2023/01/24 07:36:45;;;;;;;3.67;2.13;;;;;;;;;;5133007;27;20518;-76
2023/01/24 07:39:12;;;;;;;3.28;2.05;;;;;;;;;;5131335;27;20051;-77
2023/01/24 07:41:38;;;;;;;5.90;2.30;;;;;;;;;;5130509;27;20950;-80
2023/01/24 07:44:05;;;;;;;8.27;2.40;;;;;;;;;;5131672;27;20130;-79
2023/01/24 07:46:35;;;;;;;4.68;2.65;;;;;;;;;;5132022;27;20080;-76
2023/01/24 07:49:02;;;;;;;4.82;2.95;;;;;;;;;;5116817;27;20047;-69
2023/01/24 07:51:28;;;;;;;4.03;2.35;;;;;;;;;;5134848;27;20165;-78
2023/01/24 07:53:54;;;;;;;5.30;2.60;;;;;;;;;;5140068;27;20051;-80
2023/01/24 07:56:20;;;;;;;9.32;3.67;;;;;;;;;;5134159;27;20133;-79
2023/01/24 07:58:46;;;;;;;6.32;3.50;;;;;;;;;;5143306;27;20098;-80
2023/01/24 08:01:16;;;;;;;7.00;2.70;;;;;;;;;;5143767;27;20482;-80
2023/01/24 08:03:42;;;;;;;14.27;4.22;;;;;;;;;;5131629;27;20077;-81
2023/01/24 08:06:08;;;;;;;10.00;2.60;;;;;;;;;;5131152;27;20241;-83
2023/01/24 08:08:34;;;;;;;5.88;3.40;;;;;;;;;;5133002;27;20534;-80
2023/01/24 08:11:00;;;;;;;7.15;2.33;;;;;;;;;;5136178;27;20047;-80
2023/01/24 08:13:26;;;;;;;6.28;2.95;;;;;;;;;;5130600;27;20047;-80
2023/01/24 08:15:52;;;;;;;6.07;3.22;;;;;;;;;;5130524;27;20043;-80
2023/01/24 08:18:18;;;;;;;7.95;2.92;;;;;;;;;;5135557;27;20043;-78
2023/01/24 08:20:43;;;;;;;13.88;3.72;;;;;;;;;;5135384;27;20049;-78
2023/01/24 08:23:09;;;;;;;8.95;3.08;;;;;;;;;;5135410;27;20042;-78
2023/01/24 08:25:35;;;;;;;8.70;3.72;;;;;;;;;;5135478;27;20039;-77
2023/01/24 08:28:02;;;;;;;13.23;5.80;;;;;;;;;;5138546;27;20503;-76
2023/01/24 08:30:27;;;;;;;7.32;3.60;;;;;;;;;;5128211;27;20062;-78
2023/01/24 08:33:02;;;;;;;6.22;3.13;;;;;;;;;;5133161;27;20368;-76
2023/01/24 08:35:29;;;;;;;8.65;3.30;;;;;;;;;;5110501;27;20049;-77
2023/01/24 08:37:55;;;;;;;7.82;3.15;;;;;;;;;;5134130;27;20043;-77
2023/01/24 08:40:20;;;;;;;7.70;3.58;;;;;;;;;;5142701;27;20042;-78
2023/01/24 08:42:47;;;;;;;7.22;3.00;;;;;;;;;;5135093;27;20062;-78
2023/01/24 08:45:12;;;;;;;6.22;3.25;;;;;;;;;;5137143;27;20122;-77
2023/01/24 08:47:38;;;;;;;8.23;3.40;;;;;;;;;;5136896;27;20054;-78
2023/01/24 08:50:05;;;;;;;14.10;3.40;;;;;;;;;;5135389;27;20047;-76
2023/01/24 08:52:31;;;;;;;8.65;3.60;;;;;;;;;;5142871;27;20456;-80
2023/01/24 08:54:56;;;;;;;11.75;3.83;;;;;;;;;;5126358;27;20091;-78
2023/01/24 08:57:22;;;;;;;10.48;4.40;;;;;;;;;;5138363;27;20047;-77
2023/01/24 08:59:48;;;;;;;9.48;3.85;;;;;;;;;;5142362;27;20035;-78
2023/01/24 09:02:16;;;;;;;8.15;4.00;;;;;;;;;;5141485;27;20047;-78
2023/01/24 09:04:42;;;;;;;8.75;3.70;;;;;;;;;;5139120;27;20057;-77
2023/01/24 09:07:11;;;;;;;6.78;3.13;;;;;;;;;;5131422;27;20115;-79
2023/01/24 09:09:38;;;;;;;6.45;3.45;;;;;;;;;;5133570;27;20042;-77
2023/01/24 09:12:04;;;;;;;6.90;3.58;;;;;;;;;;5119019;27;20043;-78
2023/01/24 09:14:30;;;;;;;10.30;3.70;;;;;;;;;;5142556;27;20084;-77
2023/01/24 09:16:56;;;;;;;11.93;3.83;;;;;;;;;;5141535;27;20192;-79
2023/01/24 09:19:23;;;;;;;11.63;3.47;;;;;;;;;;5140504;27;20136;-78
2023/01/24 09:21:51;;;;;;;4.43;2.60;;;;;;;;;;5138359;27;20046;-77
2023/01/24 09:24:18;;;;;;;5.88;2.80;;;;;;;;;;5142704;27;20045;-78
2023/01/24 09:26:45;;;;;;;5.68;3.13;;;;;;;;;;5142714;27;20077;-77
2023/01/24 09:29:11;;;;;;;8.27;3.10;;;;;;;;;;5134625;27;20407;-76
2023/01/24 09:31:37;;;;;;;5.38;2.95;;;;;;;;;;5134837;27;20489;-78
2023/01/24 09:34:03;;;;;;;6.32;2.90;;;;;;;;;;5129606;27;20043;-77
2023/01/24 09:36:30;;;;;;;7.53;3.03;;;;;;;;;;5140260;27;20043;-76
2023/01/24 09:38:56;;;;;;;7.88;2.70;;;;;;;;;;5139467;27;20080;-76
2023/01/24 09:41:25;;;;;;;3.35;2.42;;;;;;;;;;5131561;27;20043;-76
2023/01/24 09:43:53;;;;;;;4.82;2.70;;;;;;;;;;5143917;27;20114;-75
2023/01/24 09:46:28;;;;;;;5.28;2.60;;;;;;;;;;5131737;27;20055;-77
2023/01/24 09:49:01;;;;;;;11.02;2.35;;;;;;;;;;5139706;27;20046;-76
2023/01/24 09:51:30;;;;;;;9.43;2.93;;;;;;;;;;5141021;27;20522;-76
2023/01/24 09:54:07;;;;;;;5.68;2.83;;;;;;;;;;5141515;27;20054;-76
2023/01/24 09:56:41;;;;;;;6.68;2.67;;;;;;;;;;5132491;27;20053;-76
2023/01/24 09:59:26;;;;;;;4.38;2.25;;;;;;;;;;5138270;27;20035;-77
2023/01/24 10:01:52;;;;;;;7.88;3.10;;;;;;;;;;5134112;27;20065;-76
2023/01/24 10:04:34;;;;;;;5.07;2.88;;;;;;;;;;5136246;27;20039;-77
2023/01/24 10:07:09;;;;;;;7.10;3.83;;;;;;;;;;5135359;27;20120;-78
2023/01/24 10:10:02;;;;;;;8.85;4.07;;;;;;;;;;5134058;27;20051;-79
2023/01/24 10:12:43;;;;;;;5.93;2.70;;;;;;;;;;5135525;27;20498;-78
2023/01/24 10:15:41;;;;;;;6.97;2.50;;;;;;;;;;5143616;27;20099;-78
2023/01/24 10:18:10;;;;;;;3.92;2.65;;;;;;;;;;5120448;27;20035;-77
2023/01/24 10:20:44;;;;;;;5.10;2.50;;;;;;;;;;5139686;27;20050;-76
2023/01/24 10:23:19;;;;;;;4.00;2.40;;;;;;;;;;5134939;27;20391;-76
2023/01/24 10:25:49;;;;;;;3.60;2.30;;;;;;;;;;5136730;27;20050;-77
2023/01/24 10:28:23;;;;;;;7.43;2.50;;;;;;;;;;5134298;27;20471;-76
2023/01/24 10:31:05;;;;;;;6.63;2.42;;;;;;;;;;5134827;27;20051;-78
2023/01/24 10:33:35;;;;;;;9.25;2.20;;;;;;;;;;5135543;27;20082;-78
2023/01/24 10:36:22;;;;;;;3.70;2.28;;;;;;;;;;5130118;27;20042;-78
2023/01/24 10:38:48;;;;;;;6.22;2.50;;;;;;;;;;5130288;27;20104;-79
2023/01/24 10:41:25;;;;;;;4.28;2.47;;;;;;;;;;5132507;27;20042;-79
2023/01/24 10:44:13;;;;;;;5.15;2.30;;;;;;;;;;5137481;27;21023;-76
2023/01/24 10:46:44;;;;;;;3.88;2.28;;;;;;;;;;5128705;27;20047;-77
2023/01/24 10:49:22;;;;;;;8.05;2.53;;;;;;;;;;5139698;27;20043;-78
2023/01/24 10:52:16;;;;;;;7.65;2.50;;;;;;;;;;5138235;27;20035;-78
2023/01/24 10:54:49;;;;;;;4.93;2.78;;;;;;;;;;5136595;27;20050;-77
2023/01/24 10:57:27;;;;;;;5.45;2.42;;;;;;;;;;5128187;27;20115;-79
2023/01/24 10:59:54;;;;;;;5.13;2.42;;;;;;;;;;5132296;27;20055;-78
2023/01/24 11:02:23;;;;;;;6.35;3.10;;;;;;;;;;5138123;27;20066;-79
2023/01/24 11:05:00;;;;;;;5.65;2.58;;;;;;;;;;5135297;27;20153;-78
2023/01/24 11:07:29;;;;;;;11.48;3.10;;;;;;;;;;5143483;27;20042;-77
2023/01/24 11:09:59;;;;;;;5.35;2.70;;;;;;;;;;5132745;27;20039;-77
2023/01/24 11:12:25;;;;;;;6.97;3.17;;;;;;;;;;5140624;27;20070;-76
2023/01/24 11:14:51;;;;;;;4.50;2.63;;;;;;;;;;5133599;27;20051;-77
2023/01/24 11:17:36;;;;;;;6.82;2.70;;;;;;;;;;5131104;27;20047;-76
2023/01/24 11:20:30;;;;;;;4.40;2.63;;;;;;;;;;5133214;27;20042;-78
2023/01/24 11:23:15;;;;;;;5.05;2.78;;;;;;;;;;5131576;27;20035;-77
2023/01/24 11:26:02;;;;;;;4.50;3.08;;;;;;;;;;5132958;27;20059;-76
2023/01/24 11:28:36;;;;;;;5.95;3.30;;;;;;;;;;5131241;27;20047;-78
2023/01/24 11:31:14;;;;;;;5.35;3.10;;;;;;;;;;5133019;27;20051;-79
2023/01/24 11:33:46;;;;;;;5.53;2.55;;;;;;;;;;5130013;27;20103;-75
2023/01/24 11:37:00;;;;;;;4.50;2.80;;;;;;;;;;5137520;27;20070;-77
2023/01/24 11:39:43;;;;;;;7.25;2.70;;;;;;;;;;5061130;28;20054;-78
2023/01/24 11:42:26;;;;;;;4.88;2.90;;;;;;;;;;5059649;28;20079;-76
2023/01/24 11:45:22;;;;;;;5.38;3.05;;;;;;;;;;5052143;28;20059;-79
2023/01/24 11:48:12;;;;;;;4.40;2.88;;;;;;;;;;5041159;28;20053;-77
2023/01/24 11:50:38;;;;;;;6.70;2.95;;;;;;;;;;5050071;28;20045;-78
2023/01/24 11:53:10;;;;;;;12.40;2.70;;;;;;;;;;5057237;28;20059;-78
2023/01/24 11:55:57;;;;;;;3.80;2.63;;;;;;;;;;5060920;28;20083;-77
2023/01/24 11:58:36;;;;;;;6.68;2.53;;;;;;;;;;5056415;28;20048;-78
2023/01/24 12:01:16;;;;;;;9.02;2.70;;;;;;;;;;5052762;28;20091;-78
2023/01/24 12:04:08;;;;;;;4.20;2.60;;;;;;;;;;5060764;28;20756;-77
2023/01/24 12:06:39;;;;;;;4.85;2.25;;;;;;;;;;5047883;28;20052;-79
2023/01/24 12:09:20;;;;;;;8.38;2.58;;;;;;;;;;5057083;28;20052;-77
2023/01/24 12:12:19;;;;;;;3.85;2.40;;;;;;;;;;5059077;28;20060;-75
2023/01/24 12:14:50;;;;;;;3.80;1.80;;;;;;;;;;5068893;27;20047;-77
2023/01/24 12:17:26;;;;;;;3.28;1.63;;;;;;;;;;5142131;27;20110;-76
2023/01/24 12:20:31;;;;;;;4.15;2.08;;;;;;;;;;5140575;27;20043;-79
2023/01/24 12:23:04;;;;;;;3.57;1.97;;;;;;;;;;5140365;27;20039;-77
2023/01/24 12:25:38;;;;;;;3.38;2.03;;;;;;;;;;5134209;27;20051;-78
2023/01/24 12:28:08;;;;;;;2.55;1.90;;;;;;;;;;5139726;27;20058;-79
2023/01/24 12:30:40;;;;;;;3.25;1.83;;;;;;;;;;5140013;27;20406;-78
2023/01/24 12:33:31;;;;;;;2.60;1.80;;;;;;;;;;5136923;27;21076;-76
2023/01/24 12:36:14;;;;;;;3.40;2.20;;;;;;;;;;5132889;27;20495;-77
2023/01/24 12:38:51;;;;;;;3.42;1.95;;;;;;;;;;5136653;27;20035;-79
2023/01/24 12:41:25;;;;;;;3.15;2.00;;;;;;;;;;5139962;27;20059;-78
2023/01/24 12:44:13;;;;;;;4.03;2.20;;;;;;;;;;5133862;27;20043;-80
2023/01/24 12:47:01;;;;;;;2.85;2.03;;;;;;;;;;5134463;27;20298;-77
2023/01/24 12:49:48;;;;;;;4.40;2.00;;;;;;;;;;5135203;27;20372;-78
2023/01/24 12:52:42;;;;;;;3.25;1.83;;;;;;;;;;5132133;27;20380;-78
2023/01/24 12:55:14;;;;;;;5.28;2.38;;;;;;;;;;5139612;27;20418;-80
2023/01/24 12:58:10;;;;;;;3.65;2.10;;;;;;;;;;5134225;27;20145;-77
2023/01/24 13:00:59;;;;;;;4.15;2.00;;;;;;;;;;5129906;27;20149;-78
2023/01/24 13:03:28;;;;;;;3.83;2.28;;;;;;;;;;5137572;27;20047;-80
2023/01/24 13:06:09;;;;;;;5.05;2.20;;;;;;;;;;5138266;27;20099;-76
2023/01/24 13:08:49;;;;;;;5.20;2.10;;;;;;;;;;5135512;27;20088;-79
2023/01/24 13:11:20;;;;;;;6.47;1.92;;;;;;;;;;5133731;27;20039;-82
2023/01/24 13:14:32;;;;;;;5.53;2.25;;;;;;;;;;5140918;27;20538;-79
2023/01/24 13:17:16;;;;;;;3.83;2.40;;;;;;;;;;5105822;27;20034;-76
2023/01/24 13:20:04;;;;;;;4.75;2.72;;;;;;;;;;5144639;27;20400;-78
2023/01/24 13:23:07;;;;;;;2.75;1.98;;;;;;;;;;5138785;27;20250;-78
2023/01/24 13:25:49;;;;;;;5.07;2.30;;;;;;;;;;5137715;27;20100;-76
2023/01/24 13:28:30;;;;;;;4.90;2.20;;;;;;;;;;5135986;27;20062;-80
2023/01/24 13:31:16;;;;;;;3.30;1.95;;;;;;;;;;5123929;27;20046;-79
2023/01/24 13:34:04;;;;;;;4.63;2.20;;;;;;;;;;5138937;27;20449;-77
2023/01/24 13:36:36;;;;;;;5.05;2.00;;;;;;;;;;5136603;27;21321;-79
2023/01/24 13:39:04;;;;;;;3.15;2.20;;;;;;;;;;5129852;27;20054;-78
2023/01/24 13:41:30;;;;;;;14.40;2.40;;;;;;;;;;5135792;27;20047;-80
2023/01/24 13:44:06;;;;;;;7.40;2.85;;;;;;;;;;5134934;27;20050;-78
2023/01/24 13:46:42;;;;;;;5.35;2.40;;;;;;;;;;5141445;27;20496;-79
2023/01/24 13:49:18;;;;;;;4.35;2.70;;;;;;;;;;5135585;27;20066;-77
2023/01/24 13:51:47;;;;;;;3.95;2.58;;;;;;;;;;5131859;27;20043;-78
2023/01/24 13:54:17;;;;;;;4.90;2.00;;;;;;;;;;5137237;27;20043;-79
2023/01/24 13:57:08;;;;;;;3.38;2.33;;;;;;;;;;5137630;27;20042;-78
2023/01/24 13:59:38;;;;;;;9.93;3.35;;;;;;;;;;5136033;27;20074;-78
2023/01/24 14:02:28;;;;;;;6.45;2.70;;;;;;;;;;5144519;27;20043;-79
2023/01/24 14:04:56;;;;;;;3.95;2.35;;;;;;;;;;5136141;27;20595;-77
2023/01/24 14:07:35;;;;;;;5.55;2.35;;;;;;;;;;5138394;27;20047;-77
2023/01/24 14:10:04;;;;;;;6.13;2.30;;;;;;;;;;5136899;27;20346;-81
2023/01/24 14:12:36;;;;;;;3.80;2.28;;;;;;;;;;5137330;27;20395;-79
2023/01/24 14:15:05;;;;;;;5.13;2.88;;;;;;;;;;5132041;27;20066;-76
2023/01/24 14:17:40;;;;;;;3.92;2.65;;;;;;;;;;5139521;27;20348;-81
2023/01/24 14:20:23;;;;;;;5.88;2.30;;;;;;;;;;5142341;27;20047;-76
2023/01/24 14:22:55;;;;;;;4.63;2.40;;;;;;;;;;5139508;27;22255;-77
2023/01/24 14:25:53;;;;;;;5.35;2.25;;;;;;;;;;5132579;27;20051;-77
2023/01/24 14:28:42;;;;;;;4.47;2.38;;;;;;;;;;5142749;27;20042;-76
2023/01/24 14:31:26;;;;;;;3.15;2.40;;;;;;;;;;5138331;27;20042;-77
2023/01/24 14:34:18;;;;;;;3.33;2.15;;;;;;;;;;5134826;27;20094;-76
2023/01/24 14:36:48;;;;;;;6.40;2.70;;;;;;;;;;5135928;27;20395;-81
2023/01/24 14:39:25;;;;;;;3.05;2.10;;;;;;;;;;5138133;27;20128;-76
2023/01/24 14:41:56;;;;;;;5.53;2.50;;;;;;;;;;5139034;27;20098;-80
2023/01/24 14:44:23;;;;;;;6.32;1.98;;;;;;;;;;5137214;27;20049;-78
2023/01/24 14:47:04;;;;;;;3.83;2.35;;;;;;;;;;5139341;27;20046;-78
2023/01/24 14:49:34;;;;;;;3.38;2.00;;;;;;;;;;5134712;27;20053;-80
2023/01/24 14:52:01;;;;;;;4.22;1.90;;;;;;;;;;5138677;27;20046;-76
2023/01/24 14:54:27;;;;;;;3.15;1.83;;;;;;;;;;5132648;27;20118;-79
2023/01/24 14:56:53;;;;;;;2.05;1.45;;;;;;;;;;5138556;27;20050;-78
2023/01/24 14:59:21;;;;;;;4.32;1.90;;;;;;;;;;5143040;27;20042;-80
2023/01/24 15:01:52;;;;;;;2.38;1.60;;;;;;;;;;5137105;27;20472;-78
2023/01/24 15:04:29;;;;;;;4.68;1.70;;;;;;;;;;5135288;27;20039;-78
2023/01/24 15:07:13;;;;;;;2.97;1.75;;;;;;;;;;5139325;27;20506;-76
2023/01/24 15:09:40;;;;;;;3.45;1.70;;;;;;;;;;5130366;27;20047;-76
2023/01/24 15:12:25;;;;;;;3.20;1.80;;;;;;;;;;5121785;27;20042;-81
2023/01/24 15:14:53;;;;;;;4.82;1.60;;;;;;;;;;5133872;27;20051;-75
2023/01/24 15:17:27;;;;;;;2.33;1.80;;;;;;;;;;5135430;27;20042;-76
2023/01/24 15:19:59;;;;;;;4.15;2.22;;;;;;;;;;5140549;27;20107;-77
2023/01/24 15:22:27;;;;;;;2.75;1.95;;;;;;;;;;5140729;27;20157;-74
2023/01/24 15:24:56;;;;;;;7.88;1.70;;;;;;;;;;5143579;27;20076;-74
2023/01/24 15:27:36;;;;;;;4.05;1.85;;;;;;;;;;5139464;27;20046;-79
2023/01/24 15:30:21;;;;;;;2.63;1.95;;;;;;;;;;5135829;27;20548;-72
2023/01/24 15:32:56;;;;;;;3.85;1.90;;;;;;;;;;5134697;27;20522;-73
2023/01/24 15:35:29;;;;;;;4.78;2.20;;;;;;;;;;5145789;27;20062;-72
2023/01/24 15:38:22;;;;;;;2.40;1.95;;;;;;;;;;5144344;27;20110;-73
2023/01/24 15:41:14;;;;;;;3.45;2.10;;;;;;;;;;5132251;27;20050;-80
2023/01/24 15:43:59;;;;;;;2.88;1.80;;;;;;;;;;5139477;27;20396;-78